Details From EDDF - Frankfurt am Main
To EDDS - Stuttgart
Flight Number -
Tags generated
Created
Modified
Stats Distance 85 nm / 157 km
Max Altitude 5,700 ft / 1,737 m
Waypoints 3
Social Downloads 0
Likes 0
Share

Download

Looking for another format? Having issues loading an existing format? Contact us
Advertisement - Login to hide

Notes

Basic altitude profile: - Ascent Rate: 2500ft/min - Ascent Speed: 250kts - Cruise Altitude: 35000ft - Cruise Speed: 420kts - Descent Rate: 1500ft/min - Descent Speed: 250kts Options: - Use NATs: yes - Use PACOTS: yes - Use low airways: yes - Use high airways: yes

Route

EDDF NISTE EDDS

ID Type Via Altitude (ft/m) Position (lat/lon) Dist (leg/tot) Name
O EDDF APT - 0 / 0 50.03260 / 8.54064 - / 0 nm Frankfurt am Main
NISTE FIX - 5,700 / 1,737 49.77717 / 8.67450 16 / 16 nm
O EDDS APT - 0 / 0 48.68988 / 9.22196 68 / 84 nm Stuttgart

Altitude Profile

Advertisement - Login to hide

EDDF

Details ICAO EDDF (FRA)
Name Frankfurt
Region Germany - Civil
Timezone Europe/Berlin (UTC+2.0)
Stats Elevation 362 ft / 110 m (AMSL)
Location 50.032600° 8.540670°
Runways 4
Magnetic Variation 2.946° E

METAR

EDDF 080620Z 03008KT 010V070 CAVOK 20/07 Q1023 NOSIG

Decode

TAF

TAF EDDF 080500Z 0806/0912 03008KT CAVOK= TAF EDDL 080500Z 0806/0912 36004KT CAVOK BECMG 0808/0810 36009KT BECMG 0819/0821 01004KT BECMG 0907/0910 02010KT

Decode

Departure Runways

ID Width Length Bearing (true/mag) Surface Threshold Overrun Markings Lighting
07C 197 ft / 60 m 13,134 ft / 4,003 m 69.57° / 66.62° ASPHALT 0 ft / 0 m 203 ft / 62 m PREC-APP CENTERLINE EDGE THRESHOLD ALSF-II TDZ REIL-OMNI
07L 148 ft / 45 m 9,194 ft / 2,802 m 69.56° / 66.62° CONCRETE 0 ft / 0 m 0 ft / 0 m PREC-APP CENTERLINE EDGE THRESHOLD ALSF-II TDZ REIL-OMNI
07R 148 ft / 45 m 13,134 ft / 4,003 m 69.59° / 66.64° ASPHALT 0 ft / 0 m 213 ft / 65 m PREC-APP CENTERLINE EDGE THRESHOLD ALSF-II TDZ REIL-OMNI
18 148 ft / 45 m 13,083 ft / 3,988 m 179.64° / 176.69° ASPHALT 0 ft / 0 m 0 ft / 0 m NONE CENTERLINE EDGE THRESHOLD
25C 197 ft / 60 m 13,134 ft / 4,003 m 249.61° / 246.66° ASPHALT 0 ft / 0 m 935 ft / 285 m PREC-APP CENTERLINE EDGE THRESHOLD ALSF-II TDZ REIL-OMNI
25L 148 ft / 45 m 13,134 ft / 4,003 m 249.63° / 246.68° ASPHALT 0 ft / 0 m 1,775 ft / 541 m PREC-APP CENTERLINE EDGE THRESHOLD ALSF-II TDZ REIL-OMNI
25R 148 ft / 45 m 9,194 ft / 2,802 m 249.59° / 246.64° CONCRETE 0 ft / 0 m 0 ft / 0 m PREC-APP CENTERLINE EDGE THRESHOLD ALSF-II TDZ REIL-OMNI
36 148 ft / 45 m 13,083 ft / 3,988 m 359.64° / 356.69° ASPHALT 0 ft / 0 m 121 ft / 37 m NONE CENTERLINE EDGE THRESHOLD

EDDS

Details ICAO EDDS (STR)
Name Stuttgart
Region Germany - Civil
Timezone Europe/Berlin (UTC+2.0)
Stats Elevation 1,271 ft / 387 m (AMSL)
Location 48.689800° 9.221970°
Runways 1
Magnetic Variation 3.104° E

METAR

EDDS 080620Z AUTO VRB01KT CAVOK 16/10 Q1022 NOSIG

Decode

TAF

TAF TAF EDDS 080500Z 0806/0906 VRB02KT CAVOK BECMG 0806/0809 03007KT BECMG 0819/0821 VRB02KT

Decode

Destination Runways

ID Width Length Bearing (true/mag) Surface Threshold Overrun Markings Lighting
07 148 ft / 45 m 10,985 ft / 3,348 m 74.04° / 70.93° CONCRETE 997 ft / 304 m 138 ft / 42 m PREC-APP CENTERLINE EDGE THRESHOLD ALSF-II REIL-OMNI
25 148 ft / 45 m 10,985 ft / 3,348 m 254.07° / 250.96° CONCRETE 0 ft / 0 m 144 ft / 44 m PREC-APP CENTERLINE EDGE THRESHOLD ALSF-II REIL-OMNI

Approach Navaids

Runway Type Ident Frequency Range Bearing (true/mag) Slope Elevation
07 DME ISTE 115.45 MHz 18 nm / 33 km - - 1,332 ft / 406 m (AMSL)
07 MM MM - - 73.97° / 70.86 ° - 1,273 ft / 388 m (AMSL)
07 GS ISTE 109.50 MHz 10 nm / 19 km 74.05° / 70.95 ° 3.00° 1,271 ft / 387 m (AMSL)
07 LOC-ILS ISTE 109.50 MHz 18 nm / 33 km 74.05° / 70.95 ° - 1,271 ft / 387 m (AMSL)
07 OM OM - - 73.97° / 70.86 ° - 1,273 ft / 388 m (AMSL)
25 LOC-ILS ISTW 109.90 MHz 18 nm / 33 km 254.05° / 250.95 ° - 1,271 ft / 387 m (AMSL)
25 OM OM - - 253.97° / 250.86 ° - 1,273 ft / 388 m (AMSL)
25 MM MM - - 253.97° / 250.86 ° - 1,273 ft / 388 m (AMSL)
25 DME ISTW 115.45 MHz 18 nm / 33 km - - 1,332 ft / 406 m (AMSL)
25 GS ISTW 109.90 MHz 10 nm / 19 km 254.05° / 250.95 ° 3.00° 1,271 ft / 387 m (AMSL)

Popular Alternatives